sensor_id;sensor_type;location;lat;lon;timestamp;P1;durP1;ratioP1;P2;durP2;ratioP2
3271;SDS011;1648;50.022;8.424;2023-05-07T00:01:12;2.80;;;2.43;;
3271;SDS011;1648;50.022;8.424;2023-05-07T00:06:14;3.70;;;2.80;;
3271;SDS011;1648;50.022;8.424;2023-05-07T00:11:17;2.57;;;1.97;;
3271;SDS011;1648;50.022;8.424;2023-05-07T00:16:19;4.03;;;2.07;;
3271;SDS011;1648;50.022;8.424;2023-05-07T00:21:20;4.30;;;2.43;;
3271;SDS011;1648;50.022;8.424;2023-05-07T00:26:23;3.10;;;2.63;;
3271;SDS011;1648;50.022;8.424;2023-05-07T00:31:25;2.90;;;2.70;;
3271;SDS011;1648;50.022;8.424;2023-05-07T00:36:27;3.70;;;2.73;;
3271;SDS011;1648;50.022;8.424;2023-05-07T00:41:30;3.20;;;2.40;;
3271;SDS011;1648;50.022;8.424;2023-05-07T00:46:34;3.30;;;2.50;;
3271;SDS011;1648;50.022;8.424;2023-05-07T00:51:36;4.30;;;2.97;;
3271;SDS011;1648;50.022;8.424;2023-05-07T00:56:42;2.53;;;2.20;;
3271;SDS011;1648;50.022;8.424;2023-05-07T01:01:44;4.53;;;2.70;;
3271;SDS011;1648;50.022;8.424;2023-05-07T01:06:47;5.10;;;2.90;;
3271;SDS011;1648;50.022;8.424;2023-05-07T01:11:51;3.20;;;2.80;;
3271;SDS011;1648;50.022;8.424;2023-05-07T01:16:53;3.47;;;2.60;;
3271;SDS011;1648;50.022;8.424;2023-05-07T01:22:01;3.93;;;2.50;;
3271;SDS011;1648;50.022;8.424;2023-05-07T01:27:06;5.00;;;3.13;;
3271;SDS011;1648;50.022;8.424;2023-05-07T01:32:08;5.50;;;2.93;;
3271;SDS011;1648;50.022;8.424;2023-05-07T01:37:11;3.50;;;2.53;;
3271;SDS011;1648;50.022;8.424;2023-05-07T01:42:17;3.13;;;2.37;;
3271;SDS011;1648;50.022;8.424;2023-05-07T01:47:18;3.53;;;2.60;;
3271;SDS011;1648;50.022;8.424;2023-05-07T01:52:22;3.43;;;2.50;;
3271;SDS011;1648;50.022;8.424;2023-05-07T01:57:25;4.27;;;2.90;;
3271;SDS011;1648;50.022;8.424;2023-05-07T02:02:26;2.33;;;2.13;;
3271;SDS011;1648;50.022;8.424;2023-05-07T02:07:30;7.63;;;2.60;;
3271;SDS011;1648;50.022;8.424;2023-05-07T02:12:34;3.37;;;2.23;;
3271;SDS011;1648;50.022;8.424;2023-05-07T02:17:39;2.93;;;2.60;;
3271;SDS011;1648;50.022;8.424;2023-05-07T02:22:41;3.47;;;3.03;;
3271;SDS011;1648;50.022;8.424;2023-05-07T02:27:44;4.07;;;2.97;;
3271;SDS011;1648;50.022;8.424;2023-05-07T02:32:47;3.03;;;2.27;;
3271;SDS011;1648;50.022;8.424;2023-05-07T02:37:49;5.57;;;3.10;;
3271;SDS011;1648;50.022;8.424;2023-05-07T02:42:52;4.60;;;2.90;;
3271;SDS011;1648;50.022;8.424;2023-05-07T02:47:54;4.00;;;2.40;;
3271;SDS011;1648;50.022;8.424;2023-05-07T02:52:59;3.27;;;2.90;;
3271;SDS011;1648;50.022;8.424;2023-05-07T02:58:02;3.80;;;2.80;;
3271;SDS011;1648;50.022;8.424;2023-05-07T03:03:06;6.53;;;2.70;;
3271;SDS011;1648;50.022;8.424;2023-05-07T03:08:08;2.83;;;2.57;;
3271;SDS011;1648;50.022;8.424;2023-05-07T03:13:13;5.37;;;3.10;;
3271;SDS011;1648;50.022;8.424;2023-05-07T03:18:14;6.33;;;3.30;;
3271;SDS011;1648;50.022;8.424;2023-05-07T03:23:16;7.33;;;2.97;;
3271;SDS011;1648;50.022;8.424;2023-05-07T03:28:19;5.63;;;3.30;;
3271;SDS011;1648;50.022;8.424;2023-05-07T03:33:26;4.73;;;3.27;;
3271;SDS011;1648;50.022;8.424;2023-05-07T03:38:28;5.07;;;2.80;;
3271;SDS011;1648;50.022;8.424;2023-05-07T03:43:32;2.90;;;2.60;;
3271;SDS011;1648;50.022;8.424;2023-05-07T03:48:40;4.83;;;3.70;;
3271;SDS011;1648;50.022;8.424;2023-05-07T03:53:41;7.60;;;3.17;;
3271;SDS011;1648;50.022;8.424;2023-05-07T03:58:44;2.77;;;2.50;;
3271;SDS011;1648;50.022;8.424;2023-05-07T04:03:46;6.63;;;2.77;;
3271;SDS011;1648;50.022;8.424;2023-05-07T04:08:48;3.27;;;2.97;;
3271;SDS011;1648;50.022;8.424;2023-05-07T04:13:51;3.70;;;2.50;;
3271;SDS011;1648;50.022;8.424;2023-05-07T04:18:56;4.60;;;2.53;;
3271;SDS011;1648;50.022;8.424;2023-05-07T04:23:58;3.30;;;3.00;;
3271;SDS011;1648;50.022;8.424;2023-05-07T04:29:01;3.20;;;2.90;;
3271;SDS011;1648;50.022;8.424;2023-05-07T04:34:07;3.73;;;3.07;;
3271;SDS011;1648;50.022;8.424;2023-05-07T04:39:09;5.50;;;3.10;;
3271;SDS011;1648;50.022;8.424;2023-05-07T04:44:12;4.80;;;3.27;;
3271;SDS011;1648;50.022;8.424;2023-05-07T04:49:14;4.93;;;2.60;;
3271;SDS011;1648;50.022;8.424;2023-05-07T04:54:16;4.00;;;2.80;;
3271;SDS011;1648;50.022;8.424;2023-05-07T04:59:19;3.93;;;2.80;;
3271;SDS011;1648;50.022;8.424;2023-05-07T05:04:21;7.67;;;3.17;;
3271;SDS011;1648;50.022;8.424;2023-05-07T05:09:23;5.47;;;3.17;;
3271;SDS011;1648;50.022;8.424;2023-05-07T05:14:27;5.63;;;3.93;;
3271;SDS011;1648;50.022;8.424;2023-05-07T05:19:29;4.40;;;3.40;;
3271;SDS011;1648;50.022;8.424;2023-05-07T05:24:30;4.40;;;2.80;;
3271;SDS011;1648;50.022;8.424;2023-05-07T05:29:34;5.03;;;3.10;;
3271;SDS011;1648;50.022;8.424;2023-05-07T05:34:36;3.03;;;2.67;;
3271;SDS011;1648;50.022;8.424;2023-05-07T05:39:40;6.00;;;2.83;;
3271;SDS011;1648;50.022;8.424;2023-05-07T05:44:45;5.37;;;2.53;;
3271;SDS011;1648;50.022;8.424;2023-05-07T05:49:46;3.10;;;2.80;;
3271;SDS011;1648;50.022;8.424;2023-05-07T05:54:50;2.73;;;2.50;;
3271;SDS011;1648;50.022;8.424;2023-05-07T05:59:54;3.73;;;2.60;;
3271;SDS011;1648;50.022;8.424;2023-05-07T06:04:57;3.27;;;2.90;;
3271;SDS011;1648;50.022;8.424;2023-05-07T06:09:59;4.43;;;3.03;;
3271;SDS011;1648;50.022;8.424;2023-05-07T06:15:03;4.23;;;2.83;;
3271;SDS011;1648;50.022;8.424;2023-05-07T06:20:06;6.90;;;3.67;;
3271;SDS011;1648;50.022;8.424;2023-05-07T06:25:09;5.97;;;3.30;;
3271;SDS011;1648;50.022;8.424;2023-05-07T06:30:14;5.20;;;2.87;;
3271;SDS011;1648;50.022;8.424;2023-05-07T06:35:15;3.83;;;3.23;;
3271;SDS011;1648;50.022;8.424;2023-05-07T06:40:17;4.13;;;3.30;;
3271;SDS011;1648;50.022;8.424;2023-05-07T06:45:22;8.30;;;3.73;;
3271;SDS011;1648;50.022;8.424;2023-05-07T06:50:25;4.03;;;3.10;;
3271;SDS011;1648;50.022;8.424;2023-05-07T06:55:30;2.93;;;2.73;;
3271;SDS011;1648;50.022;8.424;2023-05-07T07:00:34;5.23;;;3.57;;
3271;SDS011;1648;50.022;8.424;2023-05-07T07:05:36;3.80;;;3.13;;
3271;SDS011;1648;50.022;8.424;2023-05-07T07:10:38;5.00;;;3.40;;
3271;SDS011;1648;50.022;8.424;2023-05-07T07:15:41;4.03;;;3.63;;
3271;SDS011;1648;50.022;8.424;2023-05-07T07:20:43;6.53;;;3.83;;
3271;SDS011;1648;50.022;8.424;2023-05-07T07:25:45;3.77;;;3.47;;
3271;SDS011;1648;50.022;8.424;2023-05-07T07:30:48;6.17;;;3.60;;
3271;SDS011;1648;50.022;8.424;2023-05-07T07:35:51;5.80;;;3.90;;
3271;SDS011;1648;50.022;8.424;2023-05-07T07:40:53;4.27;;;3.50;;
3271;SDS011;1648;50.022;8.424;2023-05-07T07:45:57;5.37;;;3.53;;
3271;SDS011;1648;50.022;8.424;2023-05-07T07:51:00;3.70;;;3.17;;
3271;SDS011;1648;50.022;8.424;2023-05-07T07:56:02;4.23;;;3.13;;
3271;SDS011;1648;50.022;8.424;2023-05-07T08:01:09;10.97;;;3.70;;
3271;SDS011;1648;50.022;8.424;2023-05-07T08:06:11;9.27;;;4.17;;
3271;SDS011;1648;50.022;8.424;2023-05-07T08:11:16;6.90;;;4.27;;
3271;SDS011;1648;50.022;8.424;2023-05-07T08:16:19;4.70;;;3.80;;
3271;SDS011;1648;50.022;8.424;2023-05-07T08:21:23;4.40;;;4.00;;
3271;SDS011;1648;50.022;8.424;2023-05-07T08:26:25;5.80;;;4.43;;
3271;SDS011;1648;50.022;8.424;2023-05-07T08:31:36;4.30;;;3.80;;
3271;SDS011;1648;50.022;8.424;2023-05-07T08:36:38;4.53;;;4.13;;
3271;SDS011;1648;50.022;8.424;2023-05-07T08:41:40;5.77;;;4.67;;
3271;SDS011;1648;50.022;8.424;2023-05-07T08:46:46;9.93;;;4.50;;
3271;SDS011;1648;50.022;8.424;2023-05-07T08:51:50;8.17;;;4.07;;
3271;SDS011;1648;50.022;8.424;2023-05-07T08:56:53;4.90;;;4.27;;
3271;SDS011;1648;50.022;8.424;2023-05-07T09:01:57;3.90;;;3.60;;
3271;SDS011;1648;50.022;8.424;2023-05-07T09:07:00;5.10;;;4.47;;
3271;SDS011;1648;50.022;8.424;2023-05-07T09:12:02;4.90;;;4.23;;
3271;SDS011;1648;50.022;8.424;2023-05-07T09:17:12;6.63;;;4.30;;
3271;SDS011;1648;50.022;8.424;2023-05-07T09:22:15;4.97;;;4.50;;
3271;SDS011;1648;50.022;8.424;2023-05-07T09:27:28;7.53;;;4.17;;
3271;SDS011;1648;50.022;8.424;2023-05-07T09:32:35;5.43;;;4.00;;
3271;SDS011;1648;50.022;8.424;2023-05-07T09:37:43;4.40;;;4.00;;
3271;SDS011;1648;50.022;8.424;2023-05-07T09:42:56;6.03;;;4.00;;
3271;SDS011;1648;50.022;8.424;2023-05-07T09:48:47;5.27;;;4.77;;
3271;SDS011;1648;50.022;8.424;2023-05-07T09:54:00;7.50;;;6.10;;
3271;SDS011;1648;50.022;8.424;2023-05-07T09:59:09;10.13;;;7.07;;
3271;SDS011;1648;50.022;8.424;2023-05-07T10:04:14;4.40;;;4.00;;
3271;SDS011;1648;50.022;8.424;2023-05-07T10:09:17;6.03;;;5.17;;
3271;SDS011;1648;50.022;8.424;2023-05-07T10:14:20;6.03;;;4.67;;
3271;SDS011;1648;50.022;8.424;2023-05-07T10:19:28;5.27;;;4.77;;
3271;SDS011;1648;50.022;8.424;2023-05-07T10:24:36;5.60;;;4.27;;
3271;SDS011;1648;50.022;8.424;2023-05-07T10:29:45;4.73;;;4.27;;
3271;SDS011;1648;50.022;8.424;2023-05-07T10:34:53;4.93;;;4.17;;
3271;SDS011;1648;50.022;8.424;2023-05-07T10:39:56;4.23;;;3.83;;
3271;SDS011;1648;50.022;8.424;2023-05-07T10:45:11;5.10;;;4.20;;
3271;SDS011;1648;50.022;8.424;2023-05-07T10:50:24;4.60;;;4.20;;
3271;SDS011;1648;50.022;8.424;2023-05-07T10:55:34;4.07;;;3.73;;
3271;SDS011;1648;50.022;8.424;2023-05-07T11:00:48;3.70;;;3.10;;
3271;SDS011;1648;50.022;8.424;2023-05-07T11:17:05;5.30;;;4.03;;
3271;SDS011;1648;50.022;8.424;2023-05-07T11:22:17;3.70;;;3.40;;
3271;SDS011;1648;50.022;8.424;2023-05-07T11:27:49;6.97;;;5.03;;
3271;SDS011;1648;50.022;8.424;2023-05-07T11:32:51;4.67;;;4.03;;
3271;SDS011;1648;50.022;8.424;2023-05-07T11:37:59;3.07;;;2.80;;
3271;SDS011;1648;50.022;8.424;2023-05-07T11:43:10;2.93;;;2.73;;
3271;SDS011;1648;50.022;8.424;2023-05-07T11:48:12;3.50;;;3.20;;
3271;SDS011;1648;50.022;8.424;2023-05-07T11:53:16;5.10;;;2.60;;
3271;SDS011;1648;50.022;8.424;2023-05-07T11:58:20;4.20;;;3.00;;
3271;SDS011;1648;50.022;8.424;2023-05-07T12:03:22;3.83;;;2.83;;
3271;SDS011;1648;50.022;8.424;2023-05-07T12:08:26;3.80;;;2.83;;
3271;SDS011;1648;50.022;8.424;2023-05-07T12:13:28;2.80;;;2.50;;
3271;SDS011;1648;50.022;8.424;2023-05-07T12:18:32;3.30;;;1.97;;
3271;SDS011;1648;50.022;8.424;2023-05-07T12:23:38;2.23;;;2.03;;
3271;SDS011;1648;50.022;8.424;2023-05-07T12:28:41;2.50;;;2.30;;
3271;SDS011;1648;50.022;8.424;2023-05-07T12:33:43;1.73;;;1.60;;
3271;SDS011;1648;50.022;8.424;2023-05-07T12:38:46;2.00;;;1.90;;
3271;SDS011;1648;50.022;8.424;2023-05-07T12:43:51;2.40;;;2.20;;
3271;SDS011;1648;50.022;8.424;2023-05-07T12:48:58;2.83;;;2.30;;
3271;SDS011;1648;50.022;8.424;2023-05-07T12:54:01;3.00;;;2.03;;
3271;SDS011;1648;50.022;8.424;2023-05-07T12:59:03;3.00;;;2.20;;
3271;SDS011;1648;50.022;8.424;2023-05-07T13:04:06;2.17;;;1.97;;
3271;SDS011;1648;50.022;8.424;2023-05-07T13:09:09;2.80;;;2.30;;
3271;SDS011;1648;50.022;8.424;2023-05-07T13:14:11;2.63;;;2.43;;
3271;SDS011;1648;50.022;8.424;2023-05-07T13:19:13;2.60;;;2.40;;
3271;SDS011;1648;50.022;8.424;2023-05-07T13:24:16;5.00;;;2.30;;
3271;SDS011;1648;50.022;8.424;2023-05-07T13:29:18;3.40;;;2.67;;
3271;SDS011;1648;50.022;8.424;2023-05-07T13:34:19;3.00;;;2.70;;
3271;SDS011;1648;50.022;8.424;2023-05-07T13:39:24;4.13;;;2.07;;
3271;SDS011;1648;50.022;8.424;2023-05-07T13:44:25;3.17;;;2.60;;
3271;SDS011;1648;50.022;8.424;2023-05-07T13:49:28;5.90;;;2.40;;
3271;SDS011;1648;50.022;8.424;2023-05-07T13:54:31;3.37;;;2.53;;
3271;SDS011;1648;50.022;8.424;2023-05-07T13:59:33;10.53;;;3.47;;
3271;SDS011;1648;50.022;8.424;2023-05-07T14:04:35;4.63;;;3.30;;
3271;SDS011;1648;50.022;8.424;2023-05-07T14:09:38;3.50;;;2.93;;
3271;SDS011;1648;50.022;8.424;2023-05-07T14:14:40;5.80;;;2.97;;
3271;SDS011;1648;50.022;8.424;2023-05-07T14:19:42;3.50;;;3.20;;
3271;SDS011;1648;50.022;8.424;2023-05-07T14:24:45;3.27;;;3.00;;
3271;SDS011;1648;50.022;8.424;2023-05-07T14:29:56;3.80;;;3.40;;
3271;SDS011;1648;50.022;8.424;2023-05-07T14:34:59;3.57;;;3.27;;
3271;SDS011;1648;50.022;8.424;2023-05-07T14:40:03;5.57;;;4.13;;
3271;SDS011;1648;50.022;8.424;2023-05-07T14:45:05;4.20;;;3.60;;
3271;SDS011;1648;50.022;8.424;2023-05-07T14:50:08;5.77;;;3.67;;
3271;SDS011;1648;50.022;8.424;2023-05-07T14:55:12;7.10;;;3.97;;
3271;SDS011;1648;50.022;8.424;2023-05-07T15:00:15;3.70;;;3.40;;
3271;SDS011;1648;50.022;8.424;2023-05-07T15:05:17;4.90;;;4.30;;
3271;SDS011;1648;50.022;8.424;2023-05-07T15:10:21;6.30;;;4.27;;
3271;SDS011;1648;50.022;8.424;2023-05-07T15:15:23;5.50;;;3.87;;
3271;SDS011;1648;50.022;8.424;2023-05-07T15:20:26;6.63;;;3.47;;
3271;SDS011;1648;50.022;8.424;2023-05-07T15:25:29;3.90;;;3.23;;
3271;SDS011;1648;50.022;8.424;2023-05-07T15:30:32;5.00;;;3.60;;
3271;SDS011;1648;50.022;8.424;2023-05-07T15:35:34;3.53;;;3.23;;
3271;SDS011;1648;50.022;8.424;2023-05-07T15:40:37;5.20;;;3.30;;
3271;SDS011;1648;50.022;8.424;2023-05-07T15:45:39;5.43;;;3.17;;
3271;SDS011;1648;50.022;8.424;2023-05-07T15:50:41;6.20;;;3.37;;
3271;SDS011;1648;50.022;8.424;2023-05-07T15:55:44;4.07;;;3.67;;
3271;SDS011;1648;50.022;8.424;2023-05-07T16:00:48;4.10;;;3.70;;
3271;SDS011;1648;50.022;8.424;2023-05-07T16:05:49;3.77;;;3.43;;
3271;SDS011;1648;50.022;8.424;2023-05-07T16:10:53;3.63;;;3.30;;
3271;SDS011;1648;50.022;8.424;2023-05-07T16:15:55;6.90;;;3.40;;
3271;SDS011;1648;50.022;8.424;2023-05-07T16:20:56;4.87;;;3.00;;
3271;SDS011;1648;50.022;8.424;2023-05-07T16:25:59;4.20;;;3.00;;
3271;SDS011;1648;50.022;8.424;2023-05-07T16:31:01;3.83;;;2.97;;
3271;SDS011;1648;50.022;8.424;2023-05-07T16:36:03;4.37;;;3.80;;
3271;SDS011;1648;50.022;8.424;2023-05-07T16:41:08;7.57;;;3.03;;
3271;SDS011;1648;50.022;8.424;2023-05-07T16:46:10;7.07;;;4.60;;
3271;SDS011;1648;50.022;8.424;2023-05-07T16:51:12;5.10;;;3.65;;
3271;SDS011;1648;50.022;8.424;2023-05-07T16:56:15;6.67;;;3.90;;
3271;SDS011;1648;50.022;8.424;2023-05-07T17:01:16;6.70;;;3.93;;
3271;SDS011;1648;50.022;8.424;2023-05-07T17:06:18;4.20;;;3.80;;
3271;SDS011;1648;50.022;8.424;2023-05-07T17:11:21;4.10;;;3.17;;
3271;SDS011;1648;50.022;8.424;2023-05-07T17:16:23;3.77;;;3.47;;
3271;SDS011;1648;50.022;8.424;2023-05-07T17:21:25;3.70;;;3.17;;
3271;SDS011;1648;50.022;8.424;2023-05-07T17:26:28;6.50;;;3.67;;
3271;SDS011;1648;50.022;8.424;2023-05-07T17:31:30;7.70;;;4.90;;
3271;SDS011;1648;50.022;8.424;2023-05-07T17:36:31;7.07;;;4.47;;
3271;SDS011;1648;50.022;8.424;2023-05-07T17:41:35;25.23;;;17.33;;
3271;SDS011;1648;50.022;8.424;2023-05-07T17:46:37;9.30;;;6.03;;
3271;SDS011;1648;50.022;8.424;2023-05-07T17:51:39;9.80;;;6.30;;
3271;SDS011;1648;50.022;8.424;2023-05-07T17:56:55;9.90;;;4.80;;
3271;SDS011;1648;50.022;8.424;2023-05-07T18:01:58;7.43;;;4.70;;
3271;SDS011;1648;50.022;8.424;2023-05-07T18:07:00;9.70;;;4.80;;
3271;SDS011;1648;50.022;8.424;2023-05-07T18:12:03;9.17;;;5.50;;
3271;SDS011;1648;50.022;8.424;2023-05-07T18:17:05;8.03;;;5.10;;
3271;SDS011;1648;50.022;8.424;2023-05-07T18:22:07;4.63;;;4.10;;
3271;SDS011;1648;50.022;8.424;2023-05-07T18:27:11;6.97;;;5.60;;
3271;SDS011;1648;50.022;8.424;2023-05-07T18:32:12;8.90;;;5.13;;
3271;SDS011;1648;50.022;8.424;2023-05-07T18:37:14;10.67;;;6.90;;
3271;SDS011;1648;50.022;8.424;2023-05-07T18:42:17;12.53;;;5.60;;
3271;SDS011;1648;50.022;8.424;2023-05-07T18:47:19;9.67;;;6.63;;
3271;SDS011;1648;50.022;8.424;2023-05-07T18:52:21;15.30;;;8.13;;
3271;SDS011;1648;50.022;8.424;2023-05-07T18:57:24;11.03;;;8.23;;
3271;SDS011;1648;50.022;8.424;2023-05-07T19:02:26;15.30;;;8.07;;
3271;SDS011;1648;50.022;8.424;2023-05-07T19:07:29;11.90;;;9.07;;
3271;SDS011;1648;50.022;8.424;2023-05-07T19:12:32;10.43;;;7.80;;
3271;SDS011;1648;50.022;8.424;2023-05-07T19:17:34;11.17;;;7.80;;
3271;SDS011;1648;50.022;8.424;2023-05-07T19:22:36;21.43;;;10.33;;
3271;SDS011;1648;50.022;8.424;2023-05-07T19:27:39;13.53;;;8.90;;
3271;SDS011;1648;50.022;8.424;2023-05-07T19:32:41;12.90;;;7.87;;
3271;SDS011;1648;50.022;8.424;2023-05-07T19:37:43;10.47;;;8.13;;
3271;SDS011;1648;50.022;8.424;2023-05-07T19:42:46;10.63;;;7.50;;
3271;SDS011;1648;50.022;8.424;2023-05-07T19:47:47;10.10;;;7.10;;
3271;SDS011;1648;50.022;8.424;2023-05-07T19:52:49;9.53;;;7.13;;
3271;SDS011;1648;50.022;8.424;2023-05-07T19:57:52;9.97;;;8.83;;
3271;SDS011;1648;50.022;8.424;2023-05-07T20:02:54;12.00;;;6.97;;
3271;SDS011;1648;50.022;8.424;2023-05-07T20:07:56;10.17;;;5.80;;
3271;SDS011;1648;50.022;8.424;2023-05-07T20:12:59;8.77;;;6.60;;
3271;SDS011;1648;50.022;8.424;2023-05-07T20:18:01;11.00;;;7.23;;
3271;SDS011;1648;50.022;8.424;2023-05-07T20:23:04;12.50;;;9.30;;
3271;SDS011;1648;50.022;8.424;2023-05-07T20:28:07;5.10;;;4.17;;
3271;SDS011;1648;50.022;8.424;2023-05-07T20:33:08;5.03;;;4.50;;
3271;SDS011;1648;50.022;8.424;2023-05-07T20:38:10;10.70;;;8.27;;
3271;SDS011;1648;50.022;8.424;2023-05-07T20:43:13;5.30;;;4.80;;
3271;SDS011;1648;50.022;8.424;2023-05-07T20:48:15;6.27;;;5.10;;
3271;SDS011;1648;50.022;8.424;2023-05-07T20:53:17;10.03;;;5.70;;
3271;SDS011;1648;50.022;8.424;2023-05-07T20:58:20;8.27;;;6.43;;
3271;SDS011;1648;50.022;8.424;2023-05-07T21:03:22;10.60;;;7.30;;
3271;SDS011;1648;50.022;8.424;2023-05-07T21:08:24;11.80;;;7.57;;
3271;SDS011;1648;50.022;8.424;2023-05-07T21:13:27;12.50;;;7.87;;
3271;SDS011;1648;50.022;8.424;2023-05-07T21:18:29;12.67;;;9.07;;
3271;SDS011;1648;50.022;8.424;2023-05-07T21:23:30;9.17;;;8.00;;
3271;SDS011;1648;50.022;8.424;2023-05-07T21:28:33;17.37;;;9.47;;
3271;SDS011;1648;50.022;8.424;2023-05-07T21:33:35;15.13;;;8.60;;
3271;SDS011;1648;50.022;8.424;2023-05-07T21:38:37;12.07;;;9.10;;
3271;SDS011;1648;50.022;8.424;2023-05-07T21:43:40;15.80;;;10.40;;
3271;SDS011;1648;50.022;8.424;2023-05-07T21:48:42;11.60;;;9.40;;
3271;SDS011;1648;50.022;8.424;2023-05-07T21:53:44;12.97;;;9.67;;
3271;SDS011;1648;50.022;8.424;2023-05-07T21:58:47;16.23;;;10.83;;
3271;SDS011;1648;50.022;8.424;2023-05-07T22:03:48;16.50;;;11.37;;
3271;SDS011;1648;50.022;8.424;2023-05-07T22:08:50;14.70;;;10.37;;
3271;SDS011;1648;50.022;8.424;2023-05-07T22:13:53;12.80;;;9.10;;
3271;SDS011;1648;50.022;8.424;2023-05-07T22:18:55;13.60;;;10.13;;
3271;SDS011;1648;50.022;8.424;2023-05-07T22:23:57;16.07;;;9.90;;
3271;SDS011;1648;50.022;8.424;2023-05-07T22:29:00;19.27;;;13.00;;
3271;SDS011;1648;50.022;8.424;2023-05-07T22:34:02;22.20;;;10.23;;
3271;SDS011;1648;50.022;8.424;2023-05-07T22:39:03;14.37;;;9.87;;
3271;SDS011;1648;50.022;8.424;2023-05-07T22:44:06;14.13;;;9.37;;
3271;SDS011;1648;50.022;8.424;2023-05-07T22:49:08;11.10;;;9.43;;
3271;SDS011;1648;50.022;8.424;2023-05-07T22:54:10;14.53;;;9.97;;
3271;SDS011;1648;50.022;8.424;2023-05-07T22:59:13;15.73;;;10.77;;
3271;SDS011;1648;50.022;8.424;2023-05-07T23:04:15;17.13;;;11.57;;
3271;SDS011;1648;50.022;8.424;2023-05-07T23:09:17;15.00;;;12.33;;
3271;SDS011;1648;50.022;8.424;2023-05-07T23:14:20;19.90;;;11.77;;
3271;SDS011;1648;50.022;8.424;2023-05-07T23:19:24;16.20;;;12.30;;
3271;SDS011;1648;50.022;8.424;2023-05-07T23:24:26;18.37;;;13.90;;
3271;SDS011;1648;50.022;8.424;2023-05-07T23:29:29;18.63;;;12.30;;
3271;SDS011;1648;50.022;8.424;2023-05-07T23:34:31;16.07;;;10.80;;
3271;SDS011;1648;50.022;8.424;2023-05-07T23:39:32;15.63;;;10.57;;
3271;SDS011;1648;50.022;8.424;2023-05-07T23:44:35;12.50;;;9.90;;
3271;SDS011;1648;50.022;8.424;2023-05-07T23:49:37;18.50;;;11.63;;
3271;SDS011;1648;50.022;8.424;2023-05-07T23:54:38;16.67;;;11.93;;
3271;SDS011;1648;50.022;8.424;2023-05-07T23:59:41;17.00;;;11.57;;
